Terminal Aerodrome Forecast
Issued by NWS North Platte, NE

Home | Current Version | Previous Version | Graphics & Text | Print | Product List | Glossary On
Versions: 1 2 3 4 5 6 7 8 9 10 11 12 13
000
FTUS43 KLBF 242333
TAFVTN
TAF
KVTN 242333Z 2500/2524 16013G20KT P6SM SKC
     FM250300 16014G20KT P6SM SKC WS015/18045KT
     FM250500 17016G22KT P6SM FEW250 WS015/19050KT
     FM251100 23009KT P6SM SCT250
     FM251500 32012KT P6SM BKN250
     FM251800 36010KT P6SM BKN100 BKN250=

USA.gov is the U.S. government's official web portal to all federal, state and local government web resources and services.